Time;durP1;ratioP1;P1;durP2;ratioP2;P2;SDS_P1;SDS_P2;PMS_P1;PMS_P2;Temp;Humidity;BMP_temperature;BMP_pressure;BME280_temperature;BME280_humidity;BME280_pressure;Samples;Min_cycle;Max_cycle;Signal;HPM_P1;HPM_P2
2022/05/14 00:01:19;;;;;;;2.73;2.50;;;;;;;;;;5054057;28;20190;-78
2022/05/14 00:03:47;;;;;;;2.80;2.60;;;;;;;;;;5053889;28;20285;-78
2022/05/14 00:06:17;;;;;;;6.00;3.10;;;;;;;;;;5053152;28;20689;-77
2022/05/14 00:08:44;;;;;;;5.57;2.80;;;;;;;;;;5054036;28;20186;-78
2022/05/14 00:13:56;;;;;;;3.53;3.10;;;;;;;;;;5052559;28;20236;-78
2022/05/14 00:16:26;;;;;;;3.87;3.50;;;;;;;;;;5053254;28;20201;-77
2022/05/14 00:18:53;;;;;;;4.90;2.87;;;;;;;;;;5053437;28;20232;-78
2022/05/14 00:21:22;;;;;;;4.63;3.20;;;;;;;;;;5053766;28;20593;-78
2022/05/14 00:23:49;;;;;;;3.10;2.80;;;;;;;;;;5053470;28;20202;-78
2022/05/14 00:26:16;;;;;;;4.00;2.70;;;;;;;;;;5053195;28;20202;-78
2022/05/14 00:28:43;;;;;;;4.00;3.40;;;;;;;;;;5053321;28;20198;-77
2022/05/14 00:31:11;;;;;;;5.03;3.10;;;;;;;;;;5053169;28;20202;-78
2022/05/14 00:33:39;;;;;;;3.53;2.70;;;;;;;;;;5053160;28;20205;-78
2022/05/14 00:36:07;;;;;;;5.20;3.70;;;;;;;;;;5052892;28;20198;-78
2022/05/14 00:38:34;;;;;;;3.23;3.00;;;;;;;;;;5053079;28;20221;-78
2022/05/14 00:41:03;;;;;;;3.53;3.10;;;;;;;;;;5052996;28;20194;-77
2022/05/14 00:43:31;;;;;;;4.00;3.50;;;;;;;;;;5053342;28;20578;-78
2022/05/14 00:46:03;;;;;;;4.53;3.10;;;;;;;;;;5053177;28;20202;-77
2022/05/14 00:48:35;;;;;;;2.97;2.70;;;;;;;;;;5052741;28;20190;-77
2022/05/14 00:51:04;;;;;;;3.17;2.87;;;;;;;;;;5052899;28;20187;-78
2022/05/14 00:53:35;;;;;;;3.37;3.07;;;;;;;;;;5052831;28;20202;-78
2022/05/14 00:56:07;;;;;;;3.50;3.20;;;;;;;;;;5053069;28;20213;-77
2022/05/14 00:58:37;;;;;;;3.80;3.43;;;;;;;;;;5052464;28;20753;-77
2022/05/14 01:01:04;;;;;;;2.77;2.53;;;;;;;;;;5052586;28;20292;-78
2022/05/14 01:03:31;;;;;;;4.87;3.10;;;;;;;;;;5053030;28;20196;-78
2022/05/14 01:05:59;;;;;;;3.13;2.93;;;;;;;;;;5052833;28;20198;-78
2022/05/14 01:08:28;;;;;;;3.40;2.87;;;;;;;;;;5052415;28;20229;-78
2022/05/14 01:10:56;;;;;;;3.40;3.10;;;;;;;;;;5052480;28;20197;-77
2022/05/14 01:13:23;;;;;;;4.97;3.00;;;;;;;;;;5052528;28;20285;-78
2022/05/14 01:15:52;;;;;;;4.23;3.10;;;;;;;;;;5052478;28;20194;-78
2022/05/14 01:18:22;;;;;;;3.43;3.13;;;;;;;;;;5052344;28;20652;-78
2022/05/14 01:20:53;;;;;;;3.60;2.93;;;;;;;;;;5052121;28;20206;-78
2022/05/14 01:23:29;;;;;;;3.80;3.23;;;;;;;;;;5052374;28;20186;-78
2022/05/14 01:28:51;;;;;;;3.80;3.50;;;;;;;;;;5052360;28;20196;-77
2022/05/14 01:31:18;;;;;;;4.90;3.47;;;;;;;;;;5051889;28;20206;-77
2022/05/14 01:33:45;;;;;;;3.80;3.50;;;;;;;;;;5052521;28;20612;-77
2022/05/14 01:36:12;;;;;;;2.67;2.47;;;;;;;;;;5052063;28;20198;-78
2022/05/14 01:38:40;;;;;;;5.57;3.23;;;;;;;;;;5052302;28;20240;-77
2022/05/14 01:41:10;;;;;;;4.80;3.50;;;;;;;;;;5051991;28;20198;-78
2022/05/14 01:43:38;;;;;;;3.20;2.93;;;;;;;;;;5052063;28;20201;-78
2022/05/14 01:46:06;;;;;;;3.93;3.53;;;;;;;;;;5052182;28;20205;-78
2022/05/14 01:48:33;;;;;;;4.23;3.03;;;;;;;;;;5051744;28;20198;-77
2022/05/14 01:51:00;;;;;;;3.17;2.97;;;;;;;;;;5051817;28;20204;-77
2022/05/14 01:53:28;;;;;;;3.70;3.10;;;;;;;;;;5052225;28;20206;-77
2022/05/14 01:55:55;;;;;;;3.80;3.00;;;;;;;;;;5051689;28;20202;-78
2022/05/14 01:58:39;;;;;;;3.37;3.07;;;;;;;;;;5051670;28;20229;-77
2022/05/14 02:01:11;;;;;;;3.57;3.07;;;;;;;;;;5051852;28;20670;-78
2022/05/14 02:03:39;;;;;;;3.23;2.90;;;;;;;;;;5052096;28;20605;-77
2022/05/14 02:06:07;;;;;;;3.90;3.40;;;;;;;;;;5051521;28;20202;-78
2022/05/14 02:08:34;;;;;;;3.50;3.10;;;;;;;;;;5051884;28;20198;-78
2022/05/14 02:11:01;;;;;;;6.03;2.80;;;;;;;;;;5051173;28;20197;-78
2022/05/14 02:13:30;;;;;;;3.30;3.07;;;;;;;;;;5051622;28;20202;-77
2022/05/14 02:15:57;;;;;;;3.40;3.07;;;;;;;;;;5051477;28;20717;-78
2022/05/14 02:18:25;;;;;;;3.60;3.10;;;;;;;;;;5051676;28;20674;-78
2022/05/14 02:20:52;;;;;;;4.77;2.73;;;;;;;;;;5051513;28;20205;-78
2022/05/14 02:23:20;;;;;;;3.43;3.13;;;;;;;;;;5052500;28;20209;-78
2022/05/14 02:25:47;;;;;;;3.63;2.97;;;;;;;;;;5051984;28;20198;-78
2022/05/14 02:28:15;;;;;;;4.93;3.40;;;;;;;;;;5051454;28;20647;-78
2022/05/14 02:30:44;;;;;;;3.77;3.10;;;;;;;;;;5051402;28;20202;-78
2022/05/14 02:33:11;;;;;;;3.20;2.90;;;;;;;;;;5051465;28;20198;-78
2022/05/14 02:35:38;;;;;;;4.13;3.63;;;;;;;;;;5051267;28;20206;-78
2022/05/14 02:38:06;;;;;;;5.40;3.33;;;;;;;;;;5053432;28;20201;-77
2022/05/14 02:40:34;;;;;;;4.90;3.13;;;;;;;;;;5055378;28;20225;-78
2022/05/14 02:43:01;;;;;;;3.93;3.30;;;;;;;;;;5055357;28;20201;-78
2022/05/14 02:45:28;;;;;;;3.83;3.53;;;;;;;;;;5055555;28;20208;-78
2022/05/14 02:47:57;;;;;;;3.17;2.97;;;;;;;;;;5055298;28;20194;-78
2022/05/14 02:50:24;;;;;;;3.30;2.77;;;;;;;;;;5055193;28;20580;-77
2022/05/14 02:52:52;;;;;;;3.70;3.40;;;;;;;;;;5055309;28;20233;-78
2022/05/14 02:55:19;;;;;;;3.40;3.10;;;;;;;;;;5055099;28;20201;-78
2022/05/14 02:57:46;;;;;;;3.67;3.37;;;;;;;;;;5054925;28;20237;-78
2022/05/14 03:00:16;;;;;;;3.80;3.33;;;;;;;;;;5054877;28;20226;-78
2022/05/14 03:02:43;;;;;;;7.30;3.83;;;;;;;;;;5055287;28;20202;-78
2022/05/14 03:05:13;;;;;;;3.80;3.17;;;;;;;;;;5054778;28;20198;-79
2022/05/14 03:07:40;;;;;;;3.97;3.60;;;;;;;;;;5051837;28;20198;-79
2022/05/14 03:10:08;;;;;;;3.33;3.03;;;;;;;;;;5054568;28;20197;-78
2022/05/14 03:12:35;;;;;;;9.37;3.67;;;;;;;;;;5054507;28;20238;-79
2022/05/14 03:15:03;;;;;;;3.63;3.33;;;;;;;;;;5054582;28;20202;-79
2022/05/14 03:17:30;;;;;;;3.67;3.30;;;;;;;;;;5054972;28;20602;-79
2022/05/14 03:19:57;;;;;;;3.40;3.13;;;;;;;;;;5054115;28;20234;-79
2022/05/14 03:22:26;;;;;;;4.40;4.00;;;;;;;;;;5054583;28;20197;-79
2022/05/14 03:24:53;;;;;;;4.33;3.80;;;;;;;;;;5054686;28;20221;-79
2022/05/14 03:27:20;;;;;;;3.97;3.67;;;;;;;;;;5054684;28;20600;-79
2022/05/14 03:29:47;;;;;;;3.57;3.33;;;;;;;;;;5053977;28;20202;-79
2022/05/14 03:32:14;;;;;;;6.73;3.30;;;;;;;;;;5054735;28;20862;-78
2022/05/14 03:34:41;;;;;;;3.70;3.37;;;;;;;;;;5054285;28;20201;-79
2022/05/14 03:37:09;;;;;;;4.60;3.83;;;;;;;;;;5054085;28;20198;-79
2022/05/14 03:39:37;;;;;;;6.33;3.67;;;;;;;;;;5053994;28;20321;-78
2022/05/14 03:42:05;;;;;;;4.93;4.07;;;;;;;;;;5050149;28;20195;-78
2022/05/14 03:44:33;;;;;;;5.17;3.53;;;;;;;;;;5034284;28;20284;-79
2022/05/14 03:47:00;;;;;;;6.00;3.67;;;;;;;;;;5034370;28;20289;-79
2022/05/14 03:49:27;;;;;;;3.93;3.53;;;;;;;;;;5034055;28;20195;-79
2022/05/14 03:51:54;;;;;;;3.70;3.40;;;;;;;;;;5034413;28;20573;-79
2022/05/14 03:54:21;;;;;;;4.80;3.63;;;;;;;;;;5034096;28;20213;-79
2022/05/14 03:56:50;;;;;;;5.03;4.30;;;;;;;;;;5033621;28;20813;-77
2022/05/14 03:59:17;;;;;;;4.40;4.00;;;;;;;;;;5034001;28;20214;-77
2022/05/14 04:01:46;;;;;;;5.47;4.40;;;;;;;;;;5042714;28;20206;-77
2022/05/14 04:04:15;;;;;;;4.57;4.17;;;;;;;;;;5053847;28;20701;-76
2022/05/14 04:06:43;;;;;;;3.97;3.67;;;;;;;;;;5053800;28;20198;-76
2022/05/14 04:09:10;;;;;;;4.13;3.63;;;;;;;;;;5053721;28;20297;-77
2022/05/14 04:11:37;;;;;;;4.00;3.53;;;;;;;;;;5054071;28;20209;-77
2022/05/14 04:14:06;;;;;;;7.03;4.33;;;;;;;;;;5053644;28;20221;-77
2022/05/14 04:16:33;;;;;;;4.17;3.43;;;;;;;;;;5053991;28;20351;-77
2022/05/14 04:19:00;;;;;;;5.83;3.57;;;;;;;;;;5053644;28;20198;-77
2022/05/14 04:21:27;;;;;;;3.57;3.00;;;;;;;;;;5053867;28;20637;-77
2022/05/14 04:23:55;;;;;;;3.70;3.40;;;;;;;;;;5053582;28;20198;-77
2022/05/14 04:26:24;;;;;;;5.40;3.53;;;;;;;;;;5053728;28;20284;-76
2022/05/14 04:28:51;;;;;;;3.50;3.20;;;;;;;;;;5052790;28;20578;-77
2022/05/14 04:31:21;;;;;;;3.73;3.40;;;;;;;;;;5053162;28;20280;-77
2022/05/14 04:33:48;;;;;;;5.23;3.77;;;;;;;;;;5053392;28;20729;-77
2022/05/14 04:36:16;;;;;;;5.00;3.80;;;;;;;;;;5052909;28;20293;-77
2022/05/14 04:38:43;;;;;;;5.10;3.40;;;;;;;;;;5052802;28;20565;-77
2022/05/14 04:41:10;;;;;;;3.47;3.20;;;;;;;;;;5052971;28;20221;-77
2022/05/14 04:43:38;;;;;;;4.00;3.53;;;;;;;;;;5053214;28;20581;-77
2022/05/14 04:46:07;;;;;;;6.93;4.70;;;;;;;;;;5052809;28;20314;-77
2022/05/14 04:48:37;;;;;;;5.27;3.80;;;;;;;;;;5053090;28;20267;-77
2022/05/14 04:51:05;;;;;;;8.17;3.83;;;;;;;;;;5053077;28;20182;-77
2022/05/14 04:53:32;;;;;;;4.20;3.80;;;;;;;;;;5051101;28;20197;-77
2022/05/14 04:56:00;;;;;;;4.23;3.80;;;;;;;;;;5051609;28;20202;-77
2022/05/14 04:58:27;;;;;;;4.73;3.87;;;;;;;;;;5051700;28;20258;-77
2022/05/14 05:00:54;;;;;;;7.73;3.57;;;;;;;;;;5050760;28;20307;-77
2022/05/14 05:03:20;;;;;;;5.07;3.40;;;;;;;;;;5051830;28;20205;-77
2022/05/14 05:05:51;;;;;;;6.13;4.00;;;;;;;;;;5051276;28;20205;-77
2022/05/14 05:08:18;;;;;;;6.43;3.90;;;;;;;;;;5051980;28;20260;-77
2022/05/14 05:10:46;;;;;;;4.13;3.57;;;;;;;;;;5051684;28;20578;-77
2022/05/14 05:13:15;;;;;;;5.47;4.00;;;;;;;;;;5051585;28;20216;-77
2022/05/14 05:15:43;;;;;;;5.27;3.67;;;;;;;;;;5051510;28;20202;-77
2022/05/14 05:18:10;;;;;;;7.40;3.43;;;;;;;;;;5051138;28;20197;-77
2022/05/14 05:20:39;;;;;;;6.63;3.60;;;;;;;;;;5050978;28;20312;-77
2022/05/14 05:23:08;;;;;;;4.10;3.67;;;;;;;;;;5051481;28;20633;-77
2022/05/14 05:25:36;;;;;;;3.17;2.93;;;;;;;;;;5050739;28;20565;-77
2022/05/14 05:28:03;;;;;;;3.47;3.20;;;;;;;;;;5051543;28;20274;-77
2022/05/14 05:30:30;;;;;;;5.20;3.80;;;;;;;;;;5050976;28;20205;-77
2022/05/14 05:32:58;;;;;;;4.07;3.67;;;;;;;;;;5050640;28;20290;-77
2022/05/14 05:35:26;;;;;;;4.37;3.93;;;;;;;;;;5050966;28;20286;-77
2022/05/14 05:37:53;;;;;;;3.43;2.97;;;;;;;;;;5051142;28;20260;-78
2022/05/14 05:40:22;;;;;;;4.43;3.43;;;;;;;;;;5050718;28;20231;-77
2022/05/14 05:42:49;;;;;;;3.57;3.27;;;;;;;;;;5051430;28;20240;-77
2022/05/14 05:45:18;;;;;;;3.43;3.20;;;;;;;;;;5052020;28;20584;-77
2022/05/14 05:47:46;;;;;;;7.80;4.13;;;;;;;;;;5052031;28;20205;-77
2022/05/14 05:50:13;;;;;;;3.57;3.27;;;;;;;;;;5051827;28;20211;-78
2022/05/14 05:52:41;;;;;;;7.70;3.17;;;;;;;;;;5052031;28;20204;-77
2022/05/14 05:57:55;;;;;;;7.77;3.03;;;;;;;;;;5052104;28;20245;-76
2022/05/14 06:00:24;;;;;;;3.13;2.93;;;;;;;;;;5051662;28;20244;-77
2022/05/14 06:02:51;;;;;;;4.93;3.20;;;;;;;;;;5051401;28;20232;-77
2022/05/14 06:05:19;;;;;;;3.60;3.07;;;;;;;;;;5051543;28;20708;-77
2022/05/14 06:07:46;;;;;;;4.37;3.00;;;;;;;;;;5051764;28;20206;-77
2022/05/14 06:10:15;;;;;;;3.30;3.00;;;;;;;;;;5051534;28;20198;-77
2022/05/14 06:12:43;;;;;;;3.10;2.90;;;;;;;;;;5051669;28;20714;-78
2022/05/14 06:15:13;;;;;;;3.53;3.07;;;;;;;;;;5051579;28;20206;-77
2022/05/14 06:17:41;;;;;;;5.10;3.10;;;;;;;;;;5051682;28;20277;-77
2022/05/14 06:20:12;;;;;;;3.20;2.90;;;;;;;;;;5048448;28;20694;-77
2022/05/14 06:22:39;;;;;;;4.53;2.83;;;;;;;;;;5031557;28;20193;-77
2022/05/14 06:25:08;;;;;;;3.53;2.70;;;;;;;;;;5040863;28;20205;-77
2022/05/14 06:27:35;;;;;;;3.07;2.83;;;;;;;;;;5051543;28;20204;-77
2022/05/14 06:30:02;;;;;;;8.93;3.07;;;;;;;;;;5051302;28;20734;-78
2022/05/14 06:32:31;;;;;;;3.73;2.63;;;;;;;;;;5043277;28;20297;-77
2022/05/14 06:34:58;;;;;;;3.43;3.13;;;;;;;;;;5031503;28;20226;-77
2022/05/14 06:37:25;;;;;;;3.90;3.50;;;;;;;;;;5031417;28;20253;-77
2022/05/14 06:39:53;;;;;;;8.33;3.40;;;;;;;;;;5031364;28;20289;-78
2022/05/14 06:42:20;;;;;;;3.30;3.07;;;;;;;;;;5031248;28;20199;-77
2022/05/14 06:44:47;;;;;;;4.23;2.73;;;;;;;;;;5031409;28;20591;-77
2022/05/14 06:47:14;;;;;;;3.67;2.43;;;;;;;;;;5031018;28;20696;-78
2022/05/14 06:49:43;;;;;;;5.27;3.07;;;;;;;;;;5048055;28;20214;-77
2022/05/14 06:52:12;;;;;;;9.10;3.30;;;;;;;;;;5043126;28;20870;-77
2022/05/14 06:54:43;;;;;;;5.23;4.10;;;;;;;;;;5044909;28;20239;-77
2022/05/14 06:57:11;;;;;;;6.70;3.70;;;;;;;;;;5042624;28;20749;-77
2022/05/14 06:59:38;;;;;;;11.90;3.77;;;;;;;;;;5030914;28;20681;-77
2022/05/14 07:02:06;;;;;;;3.37;3.13;;;;;;;;;;5031441;28;20228;-77
2022/05/14 07:07:19;;;;;;;3.67;3.17;;;;;;;;;;5031456;28;20184;-78
2022/05/14 07:09:49;;;;;;;4.80;3.47;;;;;;;;;;5031140;28;20202;-77
2022/05/14 07:12:17;;;;;;;4.27;3.87;;;;;;;;;;5030780;28;20281;-78
2022/05/14 07:14:45;;;;;;;6.77;4.13;;;;;;;;;;5031024;28;20635;-77
2022/05/14 07:17:12;;;;;;;7.13;4.00;;;;;;;;;;5031146;28;20245;-78
2022/05/14 07:19:40;;;;;;;4.73;4.27;;;;;;;;;;5030737;28;20305;-77
2022/05/14 07:22:08;;;;;;;4.27;3.87;;;;;;;;;;5031384;28;20226;-78
2022/05/14 07:24:37;;;;;;;5.93;4.20;;;;;;;;;;5033545;28;20203;-77
2022/05/14 07:27:09;;;;;;;5.30;4.10;;;;;;;;;;5034992;28;20205;-78
2022/05/14 07:29:37;;;;;;;6.17;3.40;;;;;;;;;;5034338;28;20183;-78
2022/05/14 07:32:05;;;;;;;4.13;3.40;;;;;;;;;;5034720;28;20202;-78
2022/05/14 07:34:32;;;;;;;3.40;3.10;;;;;;;;;;5034583;28;20277;-78
2022/05/14 07:37:04;;;;;;;7.63;3.10;;;;;;;;;;5034394;28;20297;-77
2022/05/14 07:39:34;;;;;;;3.00;2.80;;;;;;;;;;5034300;28;20182;-77
2022/05/14 07:42:06;;;;;;;4.33;3.20;;;;;;;;;;5034406;28;20638;-77
2022/05/14 07:44:36;;;;;;;3.70;2.80;;;;;;;;;;5035508;28;20205;-78
2022/05/14 07:47:05;;;;;;;3.83;2.80;;;;;;;;;;5053327;28;20186;-78
2022/05/14 07:49:32;;;;;;;3.83;3.30;;;;;;;;;;5052906;28;20272;-78
2022/05/14 07:52:00;;;;;;;3.70;3.40;;;;;;;;;;5049069;28;20725;-78
2022/05/14 07:54:28;;;;;;;3.63;3.33;;;;;;;;;;5049916;28;20292;-77
2022/05/14 07:56:56;;;;;;;5.43;4.77;;;;;;;;;;5050014;28;20679;-77
2022/05/14 07:59:25;;;;;;;3.57;3.17;;;;;;;;;;5033224;28;20191;-77
2022/05/14 08:01:52;;;;;;;6.80;3.93;;;;;;;;;;5041956;28;20239;-77
2022/05/14 08:04:19;;;;;;;5.53;3.73;;;;;;;;;;5052735;28;21014;-77
2022/05/14 08:06:46;;;;;;;5.70;3.60;;;;;;;;;;5052965;28;20197;-78
2022/05/14 08:09:13;;;;;;;3.77;3.40;;;;;;;;;;5052663;28;20759;-77
2022/05/14 08:11:41;;;;;;;3.87;3.53;;;;;;;;;;5052767;28;20282;-77
2022/05/14 08:14:08;;;;;;;9.50;5.07;;;;;;;;;;5052903;28;20202;-77
2022/05/14 08:16:37;;;;;;;4.80;3.90;;;;;;;;;;5052970;28;20224;-77
2022/05/14 08:19:04;;;;;;;4.60;3.40;;;;;;;;;;5052562;28;20202;-78
2022/05/14 08:24:36;;;;;;;6.97;4.23;;;;;;;;;;5052533;28;20263;-78
2022/05/14 08:27:09;;;;;;;4.93;3.83;;;;;;;;;;5052579;28;20196;-78
2022/05/14 08:29:37;;;;;;;6.27;4.53;;;;;;;;;;5052505;28;20230;-77
2022/05/14 08:32:06;;;;;;;5.60;4.37;;;;;;;;;;5052201;28;20198;-77
2022/05/14 08:34:33;;;;;;;6.30;4.07;;;;;;;;;;5051689;28;20205;-77
2022/05/14 08:37:01;;;;;;;3.90;3.60;;;;;;;;;;5052080;28;20777;-78
2022/05/14 08:39:28;;;;;;;5.00;3.60;;;;;;;;;;5052237;28;20321;-78
2022/05/14 08:41:56;;;;;;;4.53;3.97;;;;;;;;;;5052076;28;20626;-78
2022/05/14 08:44:27;;;;;;;9.20;4.20;;;;;;;;;;5050302;28;20205;-78
2022/05/14 08:46:56;;;;;;;4.40;3.73;;;;;;;;;;5052154;28;20190;-77
2022/05/14 08:49:34;;;;;;;4.37;3.53;;;;;;;;;;5052055;28;20204;-78
2022/05/14 08:52:02;;;;;;;3.53;3.23;;;;;;;;;;5037269;28;20190;-77
2022/05/14 08:54:29;;;;;;;4.20;3.73;;;;;;;;;;5044113;28;20273;-78
2022/05/14 08:57:04;;;;;;;3.70;3.40;;;;;;;;;;5051252;28;20222;-78
2022/05/14 08:59:52;;;;;;;4.63;3.40;;;;;;;;;;5052390;28;20207;-77
2022/05/14 09:02:22;;;;;;;4.80;3.43;;;;;;;;;;5048696;28;20209;-77
2022/05/14 09:04:51;;;;;;;3.40;3.17;;;;;;;;;;5049838;28;20658;-78
2022/05/14 09:07:18;;;;;;;4.10;3.50;;;;;;;;;;5049453;28;20666;-78
2022/05/14 09:09:50;;;;;;;5.93;4.07;;;;;;;;;;5052436;28;20206;-78
2022/05/14 09:12:20;;;;;;;4.40;4.00;;;;;;;;;;5046657;28;20958;-78
2022/05/14 09:14:52;;;;;;;4.40;3.90;;;;;;;;;;5042486;28;20202;-78
2022/05/14 09:17:21;;;;;;;5.57;4.23;;;;;;;;;;5051555;28;20284;-78
2022/05/14 09:19:51;;;;;;;6.23;3.70;;;;;;;;;;5049714;28;20209;-78
2022/05/14 09:22:28;;;;;;;6.57;3.87;;;;;;;;;;5050231;28;20220;-78
2022/05/14 09:25:03;;;;;;;5.60;4.37;;;;;;;;;;5051448;28;20705;-78
2022/05/14 09:27:43;;;;;;;7.80;4.43;;;;;;;;;;5052346;28;20243;-78
2022/05/14 09:30:13;;;;;;;4.30;3.53;;;;;;;;;;5052493;28;20298;-78
2022/05/14 09:32:44;;;;;;;5.53;3.33;;;;;;;;;;5051206;28;20277;-78
2022/05/14 09:35:17;;;;;;;5.70;3.23;;;;;;;;;;5051835;28;20276;-76
2022/05/14 09:37:44;;;;;;;4.70;4.00;;;;;;;;;;5052161;28;20198;-77
2022/05/14 09:40:19;;;;;;;4.07;3.33;;;;;;;;;;5050014;28;20194;-77
2022/05/14 09:42:48;;;;;;;3.77;3.47;;;;;;;;;;5047733;28;20213;-77
2022/05/14 09:45:26;;;;;;;5.27;3.40;;;;;;;;;;5051909;28;20208;-77
2022/05/14 09:47:53;;;;;;;3.40;3.20;;;;;;;;;;5048358;28;20194;-77
2022/05/14 09:50:24;;;;;;;3.10;2.80;;;;;;;;;;5037239;28;20198;-76
2022/05/14 09:52:57;;;;;;;3.43;2.87;;;;;;;;;;5049553;28;20202;-77
2022/05/14 09:55:30;;;;;;;3.60;3.30;;;;;;;;;;5046189;28;20198;-78
2022/05/14 09:58:03;;;;;;;3.10;2.90;;;;;;;;;;5045139;28;20237;-79
2022/05/14 10:00:36;;;;;;;3.47;3.10;;;;;;;;;;5051387;28;20193;-77
2022/05/14 10:03:21;;;;;;;4.17;3.27;;;;;;;;;;5050901;28;20256;-78
2022/05/14 10:05:55;;;;;;;4.73;2.80;;;;;;;;;;5047223;28;20201;-78
2022/05/14 10:08:38;;;;;;;4.23;3.57;;;;;;;;;;5048729;28;20273;-79
2022/05/14 10:11:11;;;;;;;3.57;3.17;;;;;;;;;;5050150;28;20198;-78
2022/05/14 10:13:44;;;;;;;3.43;2.93;;;;;;;;;;5048168;28;20200;-78
2022/05/14 10:16:15;;;;;;;2.97;2.70;;;;;;;;;;5050102;28;20192;-78
2022/05/14 10:18:56;;;;;;;3.47;3.20;;;;;;;;;;5048376;28;20190;-78
2022/05/14 10:21:33;;;;;;;3.30;3.00;;;;;;;;;;5048373;28;20231;-78
2022/05/14 10:27:06;;;;;;;4.27;3.60;;;;;;;;;;5049712;28;20271;-79
2022/05/14 10:29:46;;;;;;;4.23;2.97;;;;;;;;;;5048757;28;20194;-78
2022/05/14 10:32:15;;;;;;;3.58;3.13;;;;;;;;;;5047837;28;20586;-78
2022/05/14 10:34:48;;;;;;;6.70;3.83;;;;;;;;;;5049995;28;20225;-78
2022/05/14 10:37:24;;;;;;;3.83;3.20;;;;;;;;;;5049769;28;20194;-78
2022/05/14 10:39:56;;;;;;;4.17;3.10;;;;;;;;;;5048194;28;20205;-78
2022/05/14 10:42:33;;;;;;;3.13;2.60;;;;;;;;;;5050427;28;20765;-78
2022/05/14 10:45:04;;;;;;;3.63;3.00;;;;;;;;;;5050326;28;20268;-78
2022/05/14 10:47:31;;;;;;;3.05;2.75;;;;;;;;;;5050832;28;20201;-78
2022/05/14 10:50:02;;;;;;;2.90;2.70;;;;;;;;;;5050185;28;20194;-79
2022/05/14 10:52:31;;;;;;;3.60;3.40;;;;;;;;;;5050343;28;20190;-78
2022/05/14 10:54:59;;;;;;;3.20;2.90;;;;;;;;;;5049859;28;20260;-78
2022/05/14 10:57:40;;;;;;;3.67;3.20;;;;;;;;;;5047906;28;20782;-79
2022/05/14 11:00:20;;;;;;;3.83;3.53;;;;;;;;;;5050994;28;20255;-78
2022/05/14 11:02:59;;;;;;;2.50;2.40;;;;;;;;;;5052630;28;20213;-78
2022/05/14 11:05:31;;;;;;;2.83;2.63;;;;;;;;;;5053858;28;20192;-79
2022/05/14 11:08:10;;;;;;;3.08;2.88;;;;;;;;;;5052376;28;20212;-78
2022/05/14 11:10:38;;;;;;;3.25;2.85;;;;;;;;;;5053862;28;20343;-79
2022/05/14 11:13:19;;;;;;;3.05;2.72;;;;;;;;;;5054293;28;20268;-79
2022/05/14 11:15:46;;;;;;;2.72;2.50;;;;;;;;;;5044378;28;20209;-78
2022/05/14 11:18:15;;;;;;;7.20;4.82;;;;;;;;;;5053119;28;20212;-80
2022/05/14 11:20:54;;;;;;;3.22;3.03;;;;;;;;;;5053139;28;20240;-79
2022/05/14 11:23:23;;;;;;;6.50;4.55;;;;;;;;;;5050634;28;20214;-79
2022/05/14 11:26:04;;;;;;;2.70;2.50;;;;;;;;;;5051460;28;20293;-79
2022/05/14 11:28:31;;;;;;;4.93;2.63;;;;;;;;;;5052510;28;20232;-79
2022/05/14 11:31:16;;;;;;;3.00;2.75;;;;;;;;;;5053280;28;20189;-79
2022/05/14 11:33:44;;;;;;;2.35;2.17;;;;;;;;;;5050163;28;20201;-80
2022/05/14 11:36:34;;;;;;;2.58;2.38;;;;;;;;;;5051801;28;20300;-79
2022/05/14 11:39:23;;;;;;;2.55;2.35;;;;;;;;;;5047005;28;20202;-80
2022/05/14 11:41:52;;;;;;;3.03;2.67;;;;;;;;;;5053807;28;20210;-78
2022/05/14 11:44:34;;;;;;;3.60;3.03;;;;;;;;;;5053385;28;20194;-79
2022/05/14 11:47:02;;;;;;;3.00;2.80;;;;;;;;;;5052868;28;20237;-79
2022/05/14 11:49:32;;;;;;;2.97;2.78;;;;;;;;;;5053734;28;20208;-79
2022/05/14 11:52:08;;;;;;;3.53;2.65;;;;;;;;;;5054079;28;20276;-78
2022/05/14 11:54:42;;;;;;;3.75;2.60;;;;;;;;;;5053527;28;20182;-79
2022/05/14 11:57:13;;;;;;;3.28;2.67;;;;;;;;;;5054032;28;20283;-78
2022/05/14 11:59:43;;;;;;;2.67;2.58;;;;;;;;;;5052665;28;20225;-78
2022/05/14 12:02:16;;;;;;;2.75;2.47;;;;;;;;;;5046322;28;20748;-79
2022/05/14 12:04:46;;;;;;;3.67;2.60;;;;;;;;;;5053890;28;20190;-78
2022/05/14 12:07:27;;;;;;;2.58;2.38;;;;;;;;;;5053671;28;20296;-79
2022/05/14 12:10:04;;;;;;;3.50;2.65;;;;;;;;;;5053599;28;20265;-78
2022/05/14 12:12:37;;;;;;;3.08;2.80;;;;;;;;;;5053965;28;20186;-79
2022/05/14 12:15:10;;;;;;;2.55;2.35;;;;;;;;;;5053664;28;20248;-78
2022/05/14 12:17:37;;;;;;;2.50;2.40;;;;;;;;;;5054161;28;20233;-78
2022/05/14 12:20:06;;;;;;;2.28;2.08;;;;;;;;;;5053627;28;20201;-78
2022/05/14 12:22:33;;;;;;;2.45;2.25;;;;;;;;;;5053697;28;20317;-78
2022/05/14 12:25:04;;;;;;;2.08;1.98;;;;;;;;;;5053743;28;20301;-78
2022/05/14 12:27:33;;;;;;;3.13;2.38;;;;;;;;;;5053602;28;20650;-78
2022/05/14 12:30:03;;;;;;;2.45;2.35;;;;;;;;;;5053290;28;20289;-78
2022/05/14 12:35:22;;;;;;;2.22;2.03;;;;;;;;;;5033504;28;20277;-79
2022/05/14 12:37:51;;;;;;;2.75;2.53;;;;;;;;;;5033700;28;20277;-78
2022/05/14 12:40:26;;;;;;;2.30;2.17;;;;;;;;;;5033340;28;20199;-78
2022/05/14 12:42:54;;;;;;;2.80;2.50;;;;;;;;;;5033310;28;20205;-78
2022/05/14 12:45:22;;;;;;;2.28;2.17;;;;;;;;;;5033468;28;20206;-78
2022/05/14 12:47:49;;;;;;;3.75;2.60;;;;;;;;;;5032009;28;20682;-78
2022/05/14 12:50:20;;;;;;;2.35;2.13;;;;;;;;;;5032854;28;20257;-78
2022/05/14 12:52:56;;;;;;;2.55;2.30;;;;;;;;;;5033517;28;20194;-78
2022/05/14 12:55:25;;;;;;;6.53;2.90;;;;;;;;;;5033206;28;20194;-78
2022/05/14 12:57:53;;;;;;;6.25;3.20;;;;;;;;;;5032891;28;20737;-78
2022/05/14 13:00:21;;;;;;;7.50;2.50;;;;;;;;;;5032887;28;20285;-78
2022/05/14 13:02:53;;;;;;;2.30;2.05;;;;;;;;;;5044056;28;20221;-78
2022/05/14 13:05:22;;;;;;;3.28;2.50;;;;;;;;;;5032755;28;20194;-78
2022/05/14 13:07:51;;;;;;;2.60;2.40;;;;;;;;;;5032626;28;20224;-78
2022/05/14 13:10:22;;;;;;;2.67;2.45;;;;;;;;;;5032685;28;20297;-78
2022/05/14 13:12:53;;;;;;;2.73;2.53;;;;;;;;;;5032851;28;20179;-78
2022/05/14 13:15:21;;;;;;;2.70;2.50;;;;;;;;;;5032829;28;20270;-78
2022/05/14 13:17:48;;;;;;;3.30;3.00;;;;;;;;;;5032698;28;20657;-78
2022/05/14 13:20:21;;;;;;;3.37;3.13;;;;;;;;;;5032529;28;20314;-78
2022/05/14 13:22:49;;;;;;;3.43;3.13;;;;;;;;;;5032280;28;20964;-78
2022/05/14 13:25:28;;;;;;;7.43;3.77;;;;;;;;;;5032407;28;20672;-78
2022/05/14 13:27:57;;;;;;;5.90;3.77;;;;;;;;;;5032200;28;20246;-81
2022/05/14 13:30:31;;;;;;;5.63;4.57;;;;;;;;;;5030854;28;20234;-80
2022/05/14 13:33:04;;;;;;;4.23;3.60;;;;;;;;;;5032502;28;20281;-78
2022/05/14 13:38:16;;;;;;;4.53;4.07;;;;;;;;;;5032410;28;20559;-80
2022/05/14 13:40:46;;;;;;;4.90;3.60;;;;;;;;;;5051034;28;20563;-79
2022/05/14 13:43:19;;;;;;;7.23;6.47;;;;;;;;;;5052230;28;20316;-79
2022/05/14 13:45:51;;;;;;;4.70;4.30;;;;;;;;;;5052039;28;20214;-79
2022/05/14 13:48:23;;;;;;;6.23;4.37;;;;;;;;;;5051998;28;20194;-78
2022/05/14 13:50:56;;;;;;;5.00;4.47;;;;;;;;;;5051763;28;20225;-79
2022/05/14 13:53:25;;;;;;;11.17;10.17;;;;;;;;;;5051738;28;20633;-81
2022/05/14 13:56:00;;;;;;;7.53;6.83;;;;;;;;;;5051639;28;20284;-80
2022/05/14 13:58:30;;;;;;;4.97;4.43;;;;;;;;;;5050644;28;20251;-79
2022/05/14 14:01:00;;;;;;;4.30;3.90;;;;;;;;;;5050821;28;20233;-79
2022/05/14 14:03:30;;;;;;;5.03;4.60;;;;;;;;;;5039977;28;20284;-79
2022/05/14 14:05:57;;;;;;;5.43;4.87;;;;;;;;;;5031183;28;20278;-78
2022/05/14 14:08:27;;;;;;;5.03;4.53;;;;;;;;;;5031110;28;20191;-79
2022/05/14 14:10:57;;;;;;;4.63;4.23;;;;;;;;;;5030284;28;20313;-78
2022/05/14 14:13:24;;;;;;;5.10;4.63;;;;;;;;;;5030815;28;20222;-78
2022/05/14 14:15:53;;;;;;;4.20;3.80;;;;;;;;;;5030652;28;20205;-79
2022/05/14 14:18:21;;;;;;;5.37;4.53;;;;;;;;;;5040407;28;20205;-78
2022/05/14 14:20:51;;;;;;;6.83;4.17;;;;;;;;;;5032197;28;20568;-79
2022/05/14 14:23:20;;;;;;;9.30;4.40;;;;;;;;;;5031439;28;20226;-79
2022/05/14 14:25:47;;;;;;;8.80;7.00;;;;;;;;;;5031783;28;20198;-79
2022/05/14 14:28:15;;;;;;;4.80;4.40;;;;;;;;;;5032008;28;20195;-79
2022/05/14 14:30:43;;;;;;;6.43;5.00;;;;;;;;;;5031450;28;20581;-79
2022/05/14 14:33:12;;;;;;;5.87;5.33;;;;;;;;;;5031876;28;20742;-79
2022/05/14 14:35:40;;;;;;;4.10;3.80;;;;;;;;;;5035587;28;20198;-79
2022/05/14 14:38:09;;;;;;;4.57;4.10;;;;;;;;;;5035687;28;20281;-79
2022/05/14 14:40:37;;;;;;;4.57;4.10;;;;;;;;;;5035772;28;20624;-79
2022/05/14 14:43:05;;;;;;;6.53;4.50;;;;;;;;;;5035899;28;20313;-79
2022/05/14 14:45:33;;;;;;;5.40;4.33;;;;;;;;;;5035129;28;20683;-79
2022/05/14 14:48:01;;;;;;;8.63;6.97;;;;;;;;;;5037928;28;20198;-79
2022/05/14 14:50:30;;;;;;;7.00;6.30;;;;;;;;;;5044235;28;20581;-79
2022/05/14 14:52:57;;;;;;;6.43;4.87;;;;;;;;;;5035365;28;20198;-79
2022/05/14 14:55:25;;;;;;;6.73;4.53;;;;;;;;;;5034977;28;20633;-78
2022/05/14 14:57:53;;;;;;;4.77;4.40;;;;;;;;;;5035133;28;20236;-79
2022/05/14 15:00:23;;;;;;;4.70;4.20;;;;;;;;;;5035036;28;20209;-79
2022/05/14 15:02:55;;;;;;;5.33;4.43;;;;;;;;;;5035205;28;20306;-79
2022/05/14 15:05:25;;;;;;;7.57;4.03;;;;;;;;;;5034924;28;20191;-79
2022/05/14 15:07:55;;;;;;;6.90;6.23;;;;;;;;;;5035062;28;20201;-79
2022/05/14 15:10:22;;;;;;;5.40;4.80;;;;;;;;;;5035021;28;20285;-79
2022/05/14 15:12:51;;;;;;;4.63;4.23;;;;;;;;;;5035094;28;20199;-79
2022/05/14 15:15:18;;;;;;;5.37;4.87;;;;;;;;;;5035133;28;20199;-79
2022/05/14 15:17:46;;;;;;;7.37;4.53;;;;;;;;;;5034871;28;20198;-79
2022/05/14 15:20:15;;;;;;;4.63;4.23;;;;;;;;;;5034796;28;20203;-78